sensor_id;sensor_type;location;lat;lon;timestamp;temperature;humidity
30694;DHT22;17446;48.022;-1.740;2023-11-21T00:00:10;13.70;99.90
30694;DHT22;17446;48.022;-1.740;2023-11-21T00:02:38;13.70;99.90
30694;DHT22;17446;48.022;-1.740;2023-11-21T00:05:06;13.70;99.90
30694;DHT22;17446;48.022;-1.740;2023-11-21T00:07:33;13.60;99.90
30694;DHT22;17446;48.022;-1.740;2023-11-21T00:09:59;13.60;99.90
30694;DHT22;17446;48.022;-1.740;2023-11-21T00:12:24;13.60;99.90
30694;DHT22;17446;48.022;-1.740;2023-11-21T00:14:50;13.60;99.90
30694;DHT22;17446;48.022;-1.740;2023-11-21T00:17:16;13.60;99.90
30694;DHT22;17446;48.022;-1.740;2023-11-21T00:19:41;13.60;99.90
30694;DHT22;17446;48.022;-1.740;2023-11-21T00:22:08;13.70;99.90
30694;DHT22;17446;48.022;-1.740;2023-11-21T00:24:34;13.70;99.90
30694;DHT22;17446;48.022;-1.740;2023-11-21T00:27:00;13.70;99.90
30694;DHT22;17446;48.022;-1.740;2023-11-21T00:29:26;13.70;99.90
30694;DHT22;17446;48.022;-1.740;2023-11-21T00:31:52;13.70;99.90
30694;DHT22;17446;48.022;-1.740;2023-11-21T00:34:17;13.70;99.90
30694;DHT22;17446;48.022;-1.740;2023-11-21T00:36:43;13.70;99.90
30694;DHT22;17446;48.022;-1.740;2023-11-21T00:39:08;13.70;99.90
30694;DHT22;17446;48.022;-1.740;2023-11-21T00:41:34;13.70;99.90
30694;DHT22;17446;48.022;-1.740;2023-11-21T00:44:01;13.70;99.90
30694;DHT22;17446;48.022;-1.740;2023-11-21T00:46:27;13.60;99.90
30694;DHT22;17446;48.022;-1.740;2023-11-21T00:48:54;13.60;99.90
30694;DHT22;17446;48.022;-1.740;2023-11-21T00:51:21;13.50;99.90
30694;DHT22;17446;48.022;-1.740;2023-11-21T00:53:47;13.50;99.90
30694;DHT22;17446;48.022;-1.740;2023-11-21T00:56:13;13.50;99.90
30694;DHT22;17446;48.022;-1.740;2023-11-21T00:58:39;13.50;99.90
30694;DHT22;17446;48.022;-1.740;2023-11-21T01:01:09;13.50;99.90
30694;DHT22;17446;48.022;-1.740;2023-11-21T01:03:34;13.40;99.90
30694;DHT22;17446;48.022;-1.740;2023-11-21T01:06:00;13.40;99.90
30694;DHT22;17446;48.022;-1.740;2023-11-21T01:08:26;13.40;99.90
30694;DHT22;17446;48.022;-1.740;2023-11-21T01:10:51;13.40;99.90
30694;DHT22;17446;48.022;-1.740;2023-11-21T01:13:17;13.40;99.90
30694;DHT22;17446;48.022;-1.740;2023-11-21T01:15:43;13.40;99.90
30694;DHT22;17446;48.022;-1.740;2023-11-21T01:18:09;13.40;99.90
30694;DHT22;17446;48.022;-1.740;2023-11-21T01:20:35;13.40;99.90
30694;DHT22;17446;48.022;-1.740;2023-11-21T01:23:00;13.40;99.90
30694;DHT22;17446;48.022;-1.740;2023-11-21T01:25:26;13.40;99.90
30694;DHT22;17446;48.022;-1.740;2023-11-21T01:27:51;13.30;99.90
30694;DHT22;17446;48.022;-1.740;2023-11-21T01:30:17;13.30;99.90
30694;DHT22;17446;48.022;-1.740;2023-11-21T01:32:43;13.30;99.90
30694;DHT22;17446;48.022;-1.740;2023-11-21T01:35:09;13.30;99.90
30694;DHT22;17446;48.022;-1.740;2023-11-21T01:37:36;13.20;99.90
30694;DHT22;17446;48.022;-1.740;2023-11-21T01:40:02;13.20;99.90
30694;DHT22;17446;48.022;-1.740;2023-11-21T01:42:30;13.10;99.90
30694;DHT22;17446;48.022;-1.740;2023-11-21T01:44:56;13.00;99.90
30694;DHT22;17446;48.022;-1.740;2023-11-21T01:47:21;13.10;99.90
30694;DHT22;17446;48.022;-1.740;2023-11-21T01:49:47;13.00;99.90
30694;DHT22;17446;48.022;-1.740;2023-11-21T01:52:13;13.00;99.90
30694;DHT22;17446;48.022;-1.740;2023-11-21T01:54:40;12.90;99.90
30694;DHT22;17446;48.022;-1.740;2023-11-21T01:57:07;12.90;99.90
30694;DHT22;17446;48.022;-1.740;2023-11-21T01:59:37;12.90;99.90
30694;DHT22;17446;48.022;-1.740;2023-11-21T02:02:04;12.90;99.90
30694;DHT22;17446;48.022;-1.740;2023-11-21T02:04:34;12.90;99.90
30694;DHT22;17446;48.022;-1.740;2023-11-21T02:07:00;12.90;99.90
30694;DHT22;17446;48.022;-1.740;2023-11-21T02:09:29;12.80;99.90
30694;DHT22;17446;48.022;-1.740;2023-11-21T02:12:03;12.80;99.90
30694;DHT22;17446;48.022;-1.740;2023-11-21T02:14:30;12.80;99.90
30694;DHT22;17446;48.022;-1.740;2023-11-21T02:16:56;12.80;99.90
30694;DHT22;17446;48.022;-1.740;2023-11-21T02:19:26;12.80;99.90
30694;DHT22;17446;48.022;-1.740;2023-11-21T02:21:52;12.80;99.90
30694;DHT22;17446;48.022;-1.740;2023-11-21T02:24:22;12.80;99.90
30694;DHT22;17446;48.022;-1.740;2023-11-21T02:26:48;12.80;99.90
30694;DHT22;17446;48.022;-1.740;2023-11-21T02:29:20;12.80;99.90
30694;DHT22;17446;48.022;-1.740;2023-11-21T02:31:48;12.90;99.90
30694;DHT22;17446;48.022;-1.740;2023-11-21T02:34:17;12.90;99.90
30694;DHT22;17446;48.022;-1.740;2023-11-21T02:36:44;12.90;99.90
30694;DHT22;17446;48.022;-1.740;2023-11-21T02:39:10;12.90;99.90
30694;DHT22;17446;48.022;-1.740;2023-11-21T02:41:37;12.90;99.90
30694;DHT22;17446;48.022;-1.740;2023-11-21T02:44:07;12.90;99.90
30694;DHT22;17446;48.022;-1.740;2023-11-21T02:46:34;12.90;99.90
30694;DHT22;17446;48.022;-1.740;2023-11-21T02:49:00;12.90;99.90
30694;DHT22;17446;48.022;-1.740;2023-11-21T02:51:26;12.80;99.90
30694;DHT22;17446;48.022;-1.740;2023-11-21T02:53:52;12.80;99.90
30694;DHT22;17446;48.022;-1.740;2023-11-21T02:56:17;12.60;99.90
30694;DHT22;17446;48.022;-1.740;2023-11-21T02:58:43;12.60;99.90
30694;DHT22;17446;48.022;-1.740;2023-11-21T03:01:10;12.60;99.90
30694;DHT22;17446;48.022;-1.740;2023-11-21T03:03:39;12.60;99.90
30694;DHT22;17446;48.022;-1.740;2023-11-21T03:06:08;12.60;99.90
30694;DHT22;17446;48.022;-1.740;2023-11-21T03:08:34;12.60;99.90
30694;DHT22;17446;48.022;-1.740;2023-11-21T03:11:00;12.60;99.90
30694;DHT22;17446;48.022;-1.740;2023-11-21T03:13:25;12.60;99.90
30694;DHT22;17446;48.022;-1.740;2023-11-21T03:15:51;12.70;99.90
30694;DHT22;17446;48.022;-1.740;2023-11-21T03:18:17;12.70;99.90
30694;DHT22;17446;48.022;-1.740;2023-11-21T03:20:43;12.70;99.90
30694;DHT22;17446;48.022;-1.740;2023-11-21T03:23:11;12.70;99.90
30694;DHT22;17446;48.022;-1.740;2023-11-21T03:25:37;12.70;99.90
30694;DHT22;17446;48.022;-1.740;2023-11-21T03:28:03;12.70;99.90
30694;DHT22;17446;48.022;-1.740;2023-11-21T03:30:29;12.70;99.90
30694;DHT22;17446;48.022;-1.740;2023-11-21T03:32:54;12.70;99.90
30694;DHT22;17446;48.022;-1.740;2023-11-21T03:35:20;12.80;99.90
30694;DHT22;17446;48.022;-1.740;2023-11-21T03:37:46;12.80;99.90
30694;DHT22;17446;48.022;-1.740;2023-11-21T03:40:12;12.80;99.90
30694;DHT22;17446;48.022;-1.740;2023-11-21T03:42:38;12.90;99.90
30694;DHT22;17446;48.022;-1.740;2023-11-21T03:45:05;12.90;99.90
30694;DHT22;17446;48.022;-1.740;2023-11-21T03:47:31;13.00;99.90
30694;DHT22;17446;48.022;-1.740;2023-11-21T03:49:57;13.00;99.90
30694;DHT22;17446;48.022;-1.740;2023-11-21T03:52:23;13.10;99.90
30694;DHT22;17446;48.022;-1.740;2023-11-21T03:54:49;13.00;99.90
30694;DHT22;17446;48.022;-1.740;2023-11-21T03:57:15;13.10;99.90
30694;DHT22;17446;48.022;-1.740;2023-11-21T03:59:41;13.10;99.90
30694;DHT22;17446;48.022;-1.740;2023-11-21T04:02:07;13.10;99.90
30694;DHT22;17446;48.022;-1.740;2023-11-21T04:04:33;13.10;99.90
30694;DHT22;17446;48.022;-1.740;2023-11-21T04:06:59;13.10;99.90
30694;DHT22;17446;48.022;-1.740;2023-11-21T04:09:25;13.10;99.90
30694;DHT22;17446;48.022;-1.740;2023-11-21T04:11:53;13.10;99.90
30694;DHT22;17446;48.022;-1.740;2023-11-21T04:14:19;13.00;99.90
30694;DHT22;17446;48.022;-1.740;2023-11-21T04:16:45;13.00;99.90
30694;DHT22;17446;48.022;-1.740;2023-11-21T04:19:10;13.00;99.90
30694;DHT22;17446;48.022;-1.740;2023-11-21T04:21:39;13.00;99.90
30694;DHT22;17446;48.022;-1.740;2023-11-21T04:24:05;13.00;99.90
30694;DHT22;17446;48.022;-1.740;2023-11-21T04:26:31;13.00;99.90
30694;DHT22;17446;48.022;-1.740;2023-11-21T04:28:57;13.00;99.90
30694;DHT22;17446;48.022;-1.740;2023-11-21T04:31:22;12.90;99.90
30694;DHT22;17446;48.022;-1.740;2023-11-21T04:33:48;12.80;99.90
30694;DHT22;17446;48.022;-1.740;2023-11-21T04:36:14;12.80;99.90
30694;DHT22;17446;48.022;-1.740;2023-11-21T04:38:39;12.80;99.90
30694;DHT22;17446;48.022;-1.740;2023-11-21T04:41:06;12.80;99.90
30694;DHT22;17446;48.022;-1.740;2023-11-21T04:43:31;12.80;99.90
30694;DHT22;17446;48.022;-1.740;2023-11-21T04:45:57;12.80;99.90
30694;DHT22;17446;48.022;-1.740;2023-11-21T04:48:23;12.80;99.90
30694;DHT22;17446;48.022;-1.740;2023-11-21T04:50:50;12.80;99.90
30694;DHT22;17446;48.022;-1.740;2023-11-21T04:53:17;12.70;99.90
30694;DHT22;17446;48.022;-1.740;2023-11-21T04:55:43;12.70;99.90
30694;DHT22;17446;48.022;-1.740;2023-11-21T04:58:09;12.70;99.90
30694;DHT22;17446;48.022;-1.740;2023-11-21T05:00:35;12.60;99.90
30694;DHT22;17446;48.022;-1.740;2023-11-21T05:03:02;12.60;99.90
30694;DHT22;17446;48.022;-1.740;2023-11-21T05:05:28;12.60;99.90
30694;DHT22;17446;48.022;-1.740;2023-11-21T05:07:55;12.60;99.90
30694;DHT22;17446;48.022;-1.740;2023-11-21T05:10:21;12.60;99.90
30694;DHT22;17446;48.022;-1.740;2023-11-21T05:12:48;12.60;99.90
30694;DHT22;17446;48.022;-1.740;2023-11-21T05:15:16;12.60;99.90
30694;DHT22;17446;48.022;-1.740;2023-11-21T05:17:43;12.60;99.90
30694;DHT22;17446;48.022;-1.740;2023-11-21T05:20:13;12.60;99.90
30694;DHT22;17446;48.022;-1.740;2023-11-21T05:22:40;12.60;99.90
30694;DHT22;17446;48.022;-1.740;2023-11-21T05:25:06;12.60;99.90
30694;DHT22;17446;48.022;-1.740;2023-11-21T05:27:35;12.60;99.90
30694;DHT22;17446;48.022;-1.740;2023-11-21T05:30:02;12.60;99.90
30694;DHT22;17446;48.022;-1.740;2023-11-21T05:32:30;12.60;99.90
30694;DHT22;17446;48.022;-1.740;2023-11-21T05:34:56;12.60;99.90
30694;DHT22;17446;48.022;-1.740;2023-11-21T05:37:22;12.60;99.90
30694;DHT22;17446;48.022;-1.740;2023-11-21T05:39:49;12.60;99.90
30694;DHT22;17446;48.022;-1.740;2023-11-21T05:42:14;12.50;99.90
30694;DHT22;17446;48.022;-1.740;2023-11-21T05:44:43;12.60;99.90
30694;DHT22;17446;48.022;-1.740;2023-11-21T05:47:09;12.60;99.90
30694;DHT22;17446;48.022;-1.740;2023-11-21T05:49:35;12.60;99.90
30694;DHT22;17446;48.022;-1.740;2023-11-21T05:52:01;12.60;99.90
30694;DHT22;17446;48.022;-1.740;2023-11-21T05:54:26;12.60;99.90
30694;DHT22;17446;48.022;-1.740;2023-11-21T05:56:52;12.60;99.90
30694;DHT22;17446;48.022;-1.740;2023-11-21T05:59:18;12.60;99.90
30694;DHT22;17446;48.022;-1.740;2023-11-21T06:01:45;12.60;99.90
30694;DHT22;17446;48.022;-1.740;2023-11-21T06:04:11;12.60;99.90
30694;DHT22;17446;48.022;-1.740;2023-11-21T06:06:38;12.60;99.90
30694;DHT22;17446;48.022;-1.740;2023-11-21T06:09:04;12.60;99.90
30694;DHT22;17446;48.022;-1.740;2023-11-21T06:11:31;12.60;99.90
30694;DHT22;17446;48.022;-1.740;2023-11-21T06:13:57;12.60;99.90
30694;DHT22;17446;48.022;-1.740;2023-11-21T06:16:23;12.60;99.90
30694;DHT22;17446;48.022;-1.740;2023-11-21T06:18:49;12.60;99.90
30694;DHT22;17446;48.022;-1.740;2023-11-21T06:21:15;12.70;99.90
30694;DHT22;17446;48.022;-1.740;2023-11-21T06:23:42;12.70;99.90
30694;DHT22;17446;48.022;-1.740;2023-11-21T06:26:08;12.60;99.90
30694;DHT22;17446;48.022;-1.740;2023-11-21T06:28:34;12.60;99.90
30694;DHT22;17446;48.022;-1.740;2023-11-21T06:31:01;12.60;99.90
30694;DHT22;17446;48.022;-1.740;2023-11-21T06:33:31;12.60;99.90
30694;DHT22;17446;48.022;-1.740;2023-11-21T06:35:56;12.60;99.90
30694;DHT22;17446;48.022;-1.740;2023-11-21T06:38:22;12.60;99.90
30694;DHT22;17446;48.022;-1.740;2023-11-21T06:40:48;12.60;99.90
30694;DHT22;17446;48.022;-1.740;2023-11-21T06:43:13;12.60;99.90
30694;DHT22;17446;48.022;-1.740;2023-11-21T06:45:39;12.60;99.90
30694;DHT22;17446;48.022;-1.740;2023-11-21T06:48:05;12.50;99.90
30694;DHT22;17446;48.022;-1.740;2023-11-21T06:50:30;12.50;99.90
30694;DHT22;17446;48.022;-1.740;2023-11-21T06:52:56;12.50;99.90
30694;DHT22;17446;48.022;-1.740;2023-11-21T06:55:22;12.50;99.90
30694;DHT22;17446;48.022;-1.740;2023-11-21T06:57:48;12.50;99.90
30694;DHT22;17446;48.022;-1.740;2023-11-21T07:00:16;12.50;99.90
30694;DHT22;17446;48.022;-1.740;2023-11-21T07:02:43;12.40;99.90
30694;DHT22;17446;48.022;-1.740;2023-11-21T07:05:08;12.40;99.90
30694;DHT22;17446;48.022;-1.740;2023-11-21T07:07:34;12.40;99.90
30694;DHT22;17446;48.022;-1.740;2023-11-21T07:10:01;12.40;99.90
30694;DHT22;17446;48.022;-1.740;2023-11-21T07:12:29;12.40;99.90
30694;DHT22;17446;48.022;-1.740;2023-11-21T07:14:55;12.40;99.90
30694;DHT22;17446;48.022;-1.740;2023-11-21T07:17:21;12.30;99.90
30694;DHT22;17446;48.022;-1.740;2023-11-21T07:19:48;12.30;99.90
30694;DHT22;17446;48.022;-1.740;2023-11-21T07:22:15;12.30;99.90
30694;DHT22;17446;48.022;-1.740;2023-11-21T07:24:48;12.30;99.90
30694;DHT22;17446;48.022;-1.740;2023-11-21T07:27:14;12.30;99.90
30694;DHT22;17446;48.022;-1.740;2023-11-21T07:29:40;12.30;99.90
30694;DHT22;17446;48.022;-1.740;2023-11-21T07:32:06;12.30;99.90
30694;DHT22;17446;48.022;-1.740;2023-11-21T07:34:31;12.30;99.90
30694;DHT22;17446;48.022;-1.740;2023-11-21T07:36:57;12.30;99.90
30694;DHT22;17446;48.022;-1.740;2023-11-21T07:39:22;12.30;99.90
30694;DHT22;17446;48.022;-1.740;2023-11-21T07:41:48;12.30;99.90
30694;DHT22;17446;48.022;-1.740;2023-11-21T07:44:18;12.40;99.90
30694;DHT22;17446;48.022;-1.740;2023-11-21T07:46:45;12.40;99.90
30694;DHT22;17446;48.022;-1.740;2023-11-21T07:49:11;12.40;99.90
30694;DHT22;17446;48.022;-1.740;2023-11-21T07:51:37;12.50;99.90
30694;DHT22;17446;48.022;-1.740;2023-11-21T07:54:02;12.50;99.90
30694;DHT22;17446;48.022;-1.740;2023-11-21T07:56:28;12.60;99.90
30694;DHT22;17446;48.022;-1.740;2023-11-21T07:58:54;12.60;99.90
30694;DHT22;17446;48.022;-1.740;2023-11-21T08:01:19;12.70;99.90
30694;DHT22;17446;48.022;-1.740;2023-11-21T08:03:45;12.70;99.90
30694;DHT22;17446;48.022;-1.740;2023-11-21T08:06:10;12.70;99.90
30694;DHT22;17446;48.022;-1.740;2023-11-21T08:08:37;12.60;99.90
30694;DHT22;17446;48.022;-1.740;2023-11-21T08:11:03;12.60;99.90
30694;DHT22;17446;48.022;-1.740;2023-11-21T08:13:29;12.50;99.90
30694;DHT22;17446;48.022;-1.740;2023-11-21T08:15:58;12.50;99.90
30694;DHT22;17446;48.022;-1.740;2023-11-21T08:18:28;12.50;99.90
30694;DHT22;17446;48.022;-1.740;2023-11-21T08:20:54;12.50;99.90
30694;DHT22;17446;48.022;-1.740;2023-11-21T08:23:20;12.50;99.90
30694;DHT22;17446;48.022;-1.740;2023-11-21T08:25:46;12.40;99.90
30694;DHT22;17446;48.022;-1.740;2023-11-21T08:28:12;12.40;99.90
30694;DHT22;17446;48.022;-1.740;2023-11-21T08:30:40;12.40;99.90
30694;DHT22;17446;48.022;-1.740;2023-11-21T08:33:07;12.40;99.90
30694;DHT22;17446;48.022;-1.740;2023-11-21T08:35:33;12.40;99.90
30694;DHT22;17446;48.022;-1.740;2023-11-21T08:38:00;12.40;99.90
30694;DHT22;17446;48.022;-1.740;2023-11-21T08:40:25;12.30;99.90
30694;DHT22;17446;48.022;-1.740;2023-11-21T08:42:51;12.40;99.90
30694;DHT22;17446;48.022;-1.740;2023-11-21T08:45:23;12.40;99.90
30694;DHT22;17446;48.022;-1.740;2023-11-21T08:47:48;12.40;99.90
30694;DHT22;17446;48.022;-1.740;2023-11-21T08:50:14;12.50;99.90
30694;DHT22;17446;48.022;-1.740;2023-11-21T08:52:40;12.50;99.90
30694;DHT22;17446;48.022;-1.740;2023-11-21T08:55:08;12.50;99.90
30694;DHT22;17446;48.022;-1.740;2023-11-21T08:57:37;12.60;99.90
30694;DHT22;17446;48.022;-1.740;2023-11-21T09:00:03;12.60;99.90
30694;DHT22;17446;48.022;-1.740;2023-11-21T09:02:33;12.60;99.90
30694;DHT22;17446;48.022;-1.740;2023-11-21T09:05:03;12.60;99.90
30694;DHT22;17446;48.022;-1.740;2023-11-21T09:07:29;12.60;99.90
30694;DHT22;17446;48.022;-1.740;2023-11-21T09:09:55;12.60;99.90
30694;DHT22;17446;48.022;-1.740;2023-11-21T09:12:20;12.60;99.90
30694;DHT22;17446;48.022;-1.740;2023-11-21T09:14:47;12.70;99.90
30694;DHT22;17446;48.022;-1.740;2023-11-21T09:17:12;12.70;99.90
30694;DHT22;17446;48.022;-1.740;2023-11-21T09:19:38;12.80;99.90
30694;DHT22;17446;48.022;-1.740;2023-11-21T09:22:04;12.90;99.90
30694;DHT22;17446;48.022;-1.740;2023-11-21T09:24:33;12.90;99.90
30694;DHT22;17446;48.022;-1.740;2023-11-21T09:27:00;13.10;99.90
30694;DHT22;17446;48.022;-1.740;2023-11-21T09:29:29;13.20;99.90
30694;DHT22;17446;48.022;-1.740;2023-11-21T09:31:57;13.20;99.90
30694;DHT22;17446;48.022;-1.740;2023-11-21T09:34:25;13.30;99.90
30694;DHT22;17446;48.022;-1.740;2023-11-21T09:36:51;13.40;99.90
30694;DHT22;17446;48.022;-1.740;2023-11-21T09:39:17;13.50;99.90
30694;DHT22;17446;48.022;-1.740;2023-11-21T09:41:56;13.50;99.90
30694;DHT22;17446;48.022;-1.740;2023-11-21T09:44:36;13.60;99.90
30694;DHT22;17446;48.022;-1.740;2023-11-21T09:47:07;13.60;99.90
30694;DHT22;17446;48.022;-1.740;2023-11-21T09:49:37;13.60;99.90
30694;DHT22;17446;48.022;-1.740;2023-11-21T09:52:04;13.40;99.90
30694;DHT22;17446;48.022;-1.740;2023-11-21T09:54:34;13.40;99.90
30694;DHT22;17446;48.022;-1.740;2023-11-21T09:57:00;13.40;99.90
30694;DHT22;17446;48.022;-1.740;2023-11-21T09:59:30;13.30;99.90
30694;DHT22;17446;48.022;-1.740;2023-11-21T10:01:58;13.30;99.90
30694;DHT22;17446;48.022;-1.740;2023-11-21T10:04:25;13.30;99.90
30694;DHT22;17446;48.022;-1.740;2023-11-21T10:06:52;13.30;99.90
30694;DHT22;17446;48.022;-1.740;2023-11-21T10:09:18;13.30;99.90
30694;DHT22;17446;48.022;-1.740;2023-11-21T10:11:47;13.30;99.90
30694;DHT22;17446;48.022;-1.740;2023-11-21T10:14:16;13.30;99.90
30694;DHT22;17446;48.022;-1.740;2023-11-21T10:16:44;13.30;99.90
30694;DHT22;17446;48.022;-1.740;2023-11-21T10:19:12;13.40;99.90
30694;DHT22;17446;48.022;-1.740;2023-11-21T10:21:39;13.50;99.90
30694;DHT22;17446;48.022;-1.740;2023-11-21T10:24:05;13.60;99.90
30694;DHT22;17446;48.022;-1.740;2023-11-21T10:26:32;13.70;99.90
30694;DHT22;17446;48.022;-1.740;2023-11-21T10:28:59;13.80;99.90
30694;DHT22;17446;48.022;-1.740;2023-11-21T10:31:29;13.90;99.90
30694;DHT22;17446;48.022;-1.740;2023-11-21T10:34:11;13.80;99.90
30694;DHT22;17446;48.022;-1.740;2023-11-21T10:36:37;13.90;99.90
30694;DHT22;17446;48.022;-1.740;2023-11-21T10:39:03;13.90;99.90
30694;DHT22;17446;48.022;-1.740;2023-11-21T10:41:28;14.10;99.90
30694;DHT22;17446;48.022;-1.740;2023-11-21T10:43:54;14.20;99.90
30694;DHT22;17446;48.022;-1.740;2023-11-21T10:46:21;14.20;99.90
30694;DHT22;17446;48.022;-1.740;2023-11-21T10:48:55;14.20;99.90
30694;DHT22;17446;48.022;-1.740;2023-11-21T10:51:21;14.20;99.90
30694;DHT22;17446;48.022;-1.740;2023-11-21T10:53:47;14.20;99.90
30694;DHT22;17446;48.022;-1.740;2023-11-21T10:56:18;14.20;99.90
30694;DHT22;17446;48.022;-1.740;2023-11-21T10:58:50;14.20;99.90
30694;DHT22;17446;48.022;-1.740;2023-11-21T11:01:19;14.20;99.90
30694;DHT22;17446;48.022;-1.740;2023-11-21T11:03:47;14.20;99.90
30694;DHT22;17446;48.022;-1.740;2023-11-21T11:06:13;14.10;99.90
30694;DHT22;17446;48.022;-1.740;2023-11-21T11:08:40;14.00;99.90
30694;DHT22;17446;48.022;-1.740;2023-11-21T11:11:07;14.10;99.90
30694;DHT22;17446;48.022;-1.740;2023-11-21T11:13:33;14.10;99.90
30694;DHT22;17446;48.022;-1.740;2023-11-21T11:15:59;14.10;99.90
30694;DHT22;17446;48.022;-1.740;2023-11-21T11:18:29;14.10;99.90
30694;DHT22;17446;48.022;-1.740;2023-11-21T11:21:18;14.10;99.90
30694;DHT22;17446;48.022;-1.740;2023-11-21T11:29:49;14.00;99.90
30694;DHT22;17446;48.022;-1.740;2023-11-21T11:32:25;14.10;99.90
30694;DHT22;17446;48.022;-1.740;2023-11-21T11:35:06;14.20;99.90
30694;DHT22;17446;48.022;-1.740;2023-11-21T11:37:33;14.20;99.90
30694;DHT22;17446;48.022;-1.740;2023-11-21T11:39:59;14.30;99.90
30694;DHT22;17446;48.022;-1.740;2023-11-21T11:42:26;14.40;99.90
30694;DHT22;17446;48.022;-1.740;2023-11-21T11:44:53;14.40;99.90
30694;DHT22;17446;48.022;-1.740;2023-11-21T11:47:32;14.50;99.90
30694;DHT22;17446;48.022;-1.740;2023-11-21T11:50:05;14.50;99.90
30694;DHT22;17446;48.022;-1.740;2023-11-21T11:55:13;14.60;99.90
30694;DHT22;17446;48.022;-1.740;2023-11-21T11:57:40;14.60;99.90
30694;DHT22;17446;48.022;-1.740;2023-11-21T12:00:16;14.60;99.90
30694;DHT22;17446;48.022;-1.740;2023-11-21T12:02:48;14.70;99.90
30694;DHT22;17446;48.022;-1.740;2023-11-21T12:05:16;14.70;99.90
30694;DHT22;17446;48.022;-1.740;2023-11-21T12:07:44;14.70;99.90
30694;DHT22;17446;48.022;-1.740;2023-11-21T12:10:15;14.80;99.90
30694;DHT22;17446;48.022;-1.740;2023-11-21T12:12:54;14.80;99.90
30694;DHT22;17446;48.022;-1.740;2023-11-21T12:15:21;14.80;99.90
30694;DHT22;17446;48.022;-1.740;2023-11-21T12:17:48;14.80;99.90
30694;DHT22;17446;48.022;-1.740;2023-11-21T12:20:15;14.70;99.90
30694;DHT22;17446;48.022;-1.740;2023-11-21T12:22:53;14.80;99.90
30694;DHT22;17446;48.022;-1.740;2023-11-21T12:25:23;14.90;99.90
30694;DHT22;17446;48.022;-1.740;2023-11-21T12:27:50;14.80;99.90
30694;DHT22;17446;48.022;-1.740;2023-11-21T12:30:17;14.90;99.90
30694;DHT22;17446;48.022;-1.740;2023-11-21T12:32:44;14.90;99.90
30694;DHT22;17446;48.022;-1.740;2023-11-21T12:35:12;14.90;99.90
30694;DHT22;17446;48.022;-1.740;2023-11-21T12:37:38;14.90;99.90
30694;DHT22;17446;48.022;-1.740;2023-11-21T12:40:09;14.80;99.90
30694;DHT22;17446;48.022;-1.740;2023-11-21T12:42:41;14.80;99.90
30694;DHT22;17446;48.022;-1.740;2023-11-21T12:47:43;14.70;99.90
30694;DHT22;17446;48.022;-1.740;2023-11-21T12:50:10;14.70;99.90
30694;DHT22;17446;48.022;-1.740;2023-11-21T12:52:45;14.70;99.90
30694;DHT22;17446;48.022;-1.740;2023-11-21T12:55:19;14.70;99.90
30694;DHT22;17446;48.022;-1.740;2023-11-21T13:00:22;14.80;99.90
30694;DHT22;17446;48.022;-1.740;2023-11-21T13:02:57;14.80;99.90
30694;DHT22;17446;48.022;-1.740;2023-11-21T13:05:28;14.70;99.90
30694;DHT22;17446;48.022;-1.740;2023-11-21T13:07:58;14.60;99.90
30694;DHT22;17446;48.022;-1.740;2023-11-21T13:10:26;14.60;99.90
30694;DHT22;17446;48.022;-1.740;2023-11-21T13:12:57;14.60;99.90
30694;DHT22;17446;48.022;-1.740;2023-11-21T13:15:24;14.60;99.90
30694;DHT22;17446;48.022;-1.740;2023-11-21T13:17:50;14.70;99.90
30694;DHT22;17446;48.022;-1.740;2023-11-21T13:20:17;14.60;99.90
30694;DHT22;17446;48.022;-1.740;2023-11-21T13:23:09;14.60;99.90
30694;DHT22;17446;48.022;-1.740;2023-11-21T13:25:37;14.60;99.90
30694;DHT22;17446;48.022;-1.740;2023-11-21T13:28:04;14.60;99.90
30694;DHT22;17446;48.022;-1.740;2023-11-21T13:30:30;14.60;99.90
30694;DHT22;17446;48.022;-1.740;2023-11-21T13:33:03;14.50;99.90
30694;DHT22;17446;48.022;-1.740;2023-11-21T13:35:42;14.50;99.90
30694;DHT22;17446;48.022;-1.740;2023-11-21T13:38:13;14.50;99.90
30694;DHT22;17446;48.022;-1.740;2023-11-21T13:40:40;14.50;99.90
30694;DHT22;17446;48.022;-1.740;2023-11-21T13:43:12;14.50;99.90
30694;DHT22;17446;48.022;-1.740;2023-11-21T13:45:39;14.50;99.90
30694;DHT22;17446;48.022;-1.740;2023-11-21T13:48:06;14.50;99.90
30694;DHT22;17446;48.022;-1.740;2023-11-21T13:50:36;14.50;99.90
30694;DHT22;17446;48.022;-1.740;2023-11-21T13:53:02;14.40;99.90
30694;DHT22;17446;48.022;-1.740;2023-11-21T13:55:51;14.40;99.90
30694;DHT22;17446;48.022;-1.740;2023-11-21T13:58:19;14.30;99.90
30694;DHT22;17446;48.022;-1.740;2023-11-21T14:00:48;14.20;99.90
30694;DHT22;17446;48.022;-1.740;2023-11-21T14:03:22;14.10;99.90
30694;DHT22;17446;48.022;-1.740;2023-11-21T14:05:49;14.00;99.90
30694;DHT22;17446;48.022;-1.740;2023-11-21T14:08:19;14.00;99.90
30694;DHT22;17446;48.022;-1.740;2023-11-21T14:10:47;14.00;99.90
30694;DHT22;17446;48.022;-1.740;2023-11-21T14:13:19;14.00;99.90
30694;DHT22;17446;48.022;-1.740;2023-11-21T14:15:48;14.10;99.90
30694;DHT22;17446;48.022;-1.740;2023-11-21T14:18:16;14.10;99.90
30694;DHT22;17446;48.022;-1.740;2023-11-21T14:20:43;14.20;99.90
30694;DHT22;17446;48.022;-1.740;2023-11-21T14:23:10;14.30;99.90
30694;DHT22;17446;48.022;-1.740;2023-11-21T14:25:36;14.30;99.90
30694;DHT22;17446;48.022;-1.740;2023-11-21T14:28:03;14.30;99.90
30694;DHT22;17446;48.022;-1.740;2023-11-21T14:30:34;14.20;99.90
30694;DHT22;17446;48.022;-1.740;2023-11-21T14:33:02;14.10;99.90
30694;DHT22;17446;48.022;-1.740;2023-11-21T14:35:27;14.00;99.90
30694;DHT22;17446;48.022;-1.740;2023-11-21T14:37:55;14.00;99.90
30694;DHT22;17446;48.022;-1.740;2023-11-21T14:40:21;14.00;99.90
30694;DHT22;17446;48.022;-1.740;2023-11-21T14:42:50;14.00;99.90
30694;DHT22;17446;48.022;-1.740;2023-11-21T14:45:19;14.00;99.90
30694;DHT22;17446;48.022;-1.740;2023-11-21T14:47:48;13.90;99.90
30694;DHT22;17446;48.022;-1.740;2023-11-21T14:50:43;13.90;99.90
30694;DHT22;17446;48.022;-1.740;2023-11-21T14:53:29;13.90;99.90
30694;DHT22;17446;48.022;-1.740;2023-11-21T14:56:24;13.80;99.90
30694;DHT22;17446;48.022;-1.740;2023-11-21T14:58:56;13.80;99.90
30694;DHT22;17446;48.022;-1.740;2023-11-21T15:01:23;13.70;99.90
30694;DHT22;17446;48.022;-1.740;2023-11-21T15:04:02;13.80;99.90
30694;DHT22;17446;48.022;-1.740;2023-11-21T15:06:28;13.80;99.90
30694;DHT22;17446;48.022;-1.740;2023-11-21T15:08:57;13.80;99.90
30694;DHT22;17446;48.022;-1.740;2023-11-21T15:11:32;13.70;99.90
30694;DHT22;17446;48.022;-1.740;2023-11-21T15:13:58;13.70;99.90
30694;DHT22;17446;48.022;-1.740;2023-11-21T15:16:25;13.70;99.90
30694;DHT22;17446;48.022;-1.740;2023-11-21T15:18:52;13.70;99.90
30694;DHT22;17446;48.022;-1.740;2023-11-21T15:21:19;13.60;99.90
30694;DHT22;17446;48.022;-1.740;2023-11-21T15:23:46;13.60;99.90
30694;DHT22;17446;48.022;-1.740;2023-11-21T15:26:12;13.70;99.90
30694;DHT22;17446;48.022;-1.740;2023-11-21T15:28:38;13.70;99.90
30694;DHT22;17446;48.022;-1.740;2023-11-21T15:31:04;13.60;99.90